Hathaway, Montana
Current Conditions -  °F | °C
As of 10:53 AM on Thursday 27 Nov 2014 (Local Time) from KMLS Reporting Station
Overcast Overcast  
Wind Chill: 21°   Ceiling: 9500
Heat Index: 31°   Visibility: 10mi
Dew Point: 26°   Wind: 14mph
Humidity: 82%   Direction: 150°SSE
Pressure: 29.88"   Gusts: NA
Location:  46.28°N, 106.2°W
Report Text: KMLS 271753Z AUTO 15012KT 10SM OVC095 M01/M03 A2988 RMK AO2 SLP144 60000 T10061033 11006 21033 56025
Loading
Personal Weather Stations






























Interactive Weather Map New forecast layout! Learn more

10-Day Weather Forecast

Advertisements
Track Severe Weather on mobile